createdAt,value
2022-12-31T00:01:19.261Z,2379
2022-12-31T00:11:19.315Z,2379
2022-12-31T00:21:19.269Z,2377
2022-12-31T00:31:19.355Z,2378
2022-12-31T00:41:19.239Z,2377
2022-12-31T00:51:19.251Z,2378
2022-12-31T01:01:19.276Z,2392
2022-12-31T01:11:19.335Z,2389
2022-12-31T01:21:19.193Z,2389
2022-12-31T01:31:19.229Z,2386
2022-12-31T01:41:19.145Z,2384
2022-12-31T01:51:19.140Z,2382
2022-12-31T02:01:19.156Z,2381
2022-12-31T02:11:19.106Z,2379
2022-12-31T02:21:19.083Z,2379
2022-12-31T02:31:19.128Z,2377
2022-12-31T02:41:19.085Z,2377
2022-12-31T02:51:19.064Z,2378
2022-12-31T03:01:19.203Z,2376
2022-12-31T03:11:19.049Z,2390
2022-12-31T03:21:19.027Z,2387
2022-12-31T03:31:19.069Z,2384
2022-12-31T03:41:19.001Z,2383
2022-12-31T03:51:18.978Z,2379
2022-12-31T04:01:19.025Z,2379
2022-12-31T04:11:20.837Z,2377
2022-12-31T04:21:18.941Z,2377
2022-12-31T04:31:18.961Z,2375
2022-12-31T04:41:18.910Z,2375
2022-12-31T04:51:18.907Z,2373
2022-12-31T05:01:18.989Z,2373
2022-12-31T05:11:18.887Z,2373
2022-12-31T05:21:18.861Z,2386
2022-12-31T05:31:18.847Z,2383
2022-12-31T05:41:18.839Z,2382
2022-12-31T05:51:18.836Z,2379
2022-12-31T06:01:18.841Z,2377
2022-12-31T06:11:18.780Z,2376
2022-12-31T06:21:18.786Z,2375
2022-12-31T06:31:18.797Z,2373
2022-12-31T06:41:18.759Z,2370
2022-12-31T06:51:18.749Z,2372
2022-12-31T07:01:18.790Z,2369
2022-12-31T07:11:18.712Z,2368
2022-12-31T07:21:18.705Z,2368
2022-12-31T07:31:18.707Z,2381
2022-12-31T07:41:18.677Z,2377
2022-12-31T07:51:18.669Z,2375
2022-12-31T08:01:18.700Z,2373
2022-12-31T08:11:18.656Z,2372
2022-12-31T08:21:18.619Z,2372
2022-12-31T08:31:18.624Z,2372
2022-12-31T08:41:18.597Z,2372
2022-12-31T08:51:18.584Z,2373
2022-12-31T09:01:18.634Z,2373
2022-12-31T09:11:22.820Z,2373
2022-12-31T09:21:18.576Z,2373
2022-12-31T09:31:18.547Z,2375
2022-12-31T09:41:18.523Z,2391
2022-12-31T09:51:23.431Z,2387
2022-12-31T10:01:18.616Z,2387
2022-12-31T10:11:18.467Z,2389
2022-12-31T10:21:18.460Z,2390
2022-12-31T10:31:18.461Z,2317
2022-12-31T10:41:18.416Z,2332
2022-12-31T10:51:18.410Z,2346
2022-12-31T11:01:18.503Z,2357
2022-12-31T11:11:18.385Z,2366
2022-12-31T11:21:22.827Z,2375
2022-12-31T11:31:18.360Z,2382
2022-12-31T11:41:18.329Z,2387
2022-12-31T11:51:18.313Z,2408
2022-12-31T12:01:18.290Z,2412
2022-12-31T12:11:18.265Z,2413
2022-12-31T12:21:18.234Z,2416
2022-12-31T12:31:18.348Z,2416
2022-12-31T12:41:18.221Z,2418
2022-12-31T12:51:18.203Z,2419
2022-12-31T13:01:18.284Z,2421
2022-12-31T13:11:18.174Z,2421
2022-12-31T13:21:18.137Z,2422
2022-12-31T13:31:18.182Z,2423
2022-12-31T13:41:18.095Z,2423
2022-12-31T13:51:18.086Z,2425
2022-12-31T14:01:18.197Z,2440
2022-12-31T14:11:18.059Z,2436
2022-12-31T14:21:18.030Z,2434
2022-12-31T14:31:18.045Z,2431
2022-12-31T14:41:18.007Z,2428
2022-12-31T14:51:17.956Z,2426
2022-12-31T15:01:17.977Z,2423
2022-12-31T15:11:17.947Z,2420
2022-12-31T15:21:17.924Z,2418
2022-12-31T15:31:18.968Z,2414
2022-12-31T15:41:17.889Z,2411
2022-12-31T15:51:17.852Z,2408
2022-12-31T16:01:17.934Z,2407
2022-12-31T16:11:17.847Z,2419
2022-12-31T16:21:17.852Z,2413
2022-12-31T16:31:17.813Z,2407
2022-12-31T16:41:17.787Z,2402
2022-12-31T16:51:17.772Z,2400
2022-12-31T17:01:17.876Z,2398
2022-12-31T17:11:23.234Z,2393
2022-12-31T17:21:17.708Z,2391
2022-12-31T17:31:17.692Z,2386
2022-12-31T17:41:17.680Z,2384
2022-12-31T17:51:17.665Z,2382
2022-12-31T18:01:17.783Z,2379
2022-12-31T18:11:17.662Z,2377
2022-12-31T18:21:17.623Z,2390
2022-12-31T18:31:17.641Z,2386
2022-12-31T18:41:17.595Z,2382
2022-12-31T18:51:17.595Z,2381
2022-12-31T19:01:17.634Z,2378
2022-12-31T19:11:17.566Z,2376
2022-12-31T19:21:17.578Z,2375
2022-12-31T19:31:17.589Z,2372
2022-12-31T19:41:17.519Z,2368
2022-12-31T19:51:17.494Z,2367
2022-12-31T20:01:17.579Z,2366
2022-12-31T20:11:17.502Z,2364
2022-12-31T20:21:17.452Z,2361
2022-12-31T20:31:17.491Z,2375
2022-12-31T20:41:17.417Z,2368
2022-12-31T20:51:17.412Z,2367
2022-12-31T21:01:17.449Z,2368
2022-12-31T21:11:17.384Z,2365
2022-12-31T21:21:17.341Z,2361
2022-12-31T21:31:17.362Z,2361
2022-12-31T21:41:17.328Z,2357
2022-12-31T21:51:17.357Z,2355
2022-12-31T22:01:17.432Z,2356
2022-12-31T22:11:17.292Z,2355
2022-12-31T22:21:19.305Z,2354
2022-12-31T22:31:17.299Z,2354
2022-12-31T22:41:17.244Z,2368
2022-12-31T22:51:17.227Z,2364
2022-12-31T23:01:17.240Z,2361
2022-12-31T23:11:17.210Z,2359
2022-12-31T23:21:17.178Z,2355
2022-12-31T23:31:17.149Z,2354
2022-12-31T23:41:17.139Z,2352
2022-12-31T23:51:17.151Z,2350
